createdAt,value
2017-11-30T00:01:10.411Z,66.06
2017-11-30T00:03:43.489Z,65.89
2017-11-30T00:06:18.179Z,66.07
2017-11-30T00:08:51.889Z,66.10
2017-11-30T00:11:22.987Z,66.84
2017-11-30T00:13:56.377Z,66.83
2017-11-30T00:16:29.478Z,66.03
2017-11-30T00:19:03.750Z,65.97
2017-11-30T00:21:36.507Z,66.20
2017-11-30T00:24:10.905Z,66.37
2017-11-30T00:26:42.177Z,67.19
2017-11-30T00:29:13.677Z,67.70
2017-11-30T00:31:46.616Z,66.87
2017-11-30T00:34:20.435Z,66.50
2017-11-30T00:36:56.626Z,66.61
2017-11-30T00:39:31.916Z,66.31
2017-11-30T00:42:11.515Z,66.41
2017-11-30T00:44:47.936Z,66.25
2017-11-30T00:47:21.421Z,65.67
2017-11-30T00:49:56.449Z,66.12
2017-11-30T00:52:30.812Z,66.57
2017-11-30T00:55:04.412Z,66.76
2017-11-30T00:57:37.005Z,66.75
2017-11-30T01:00:11.006Z,67.06
2017-11-30T01:02:45.702Z,66.89
2017-11-30T01:05:17.924Z,66.80
2017-11-30T01:07:50.821Z,66.70
2017-11-30T01:10:22.816Z,66.58
2017-11-30T01:12:57.324Z,66.58
2017-11-30T01:15:29.408Z,66.43
2017-11-30T01:18:07.417Z,66.32
2017-11-30T01:20:45.142Z,66.03
2017-11-30T01:23:25.438Z,66.09
2017-11-30T01:26:00.513Z,66.91
2017-11-30T01:28:31.550Z,68.12
2017-11-30T01:31:05.307Z,69.14
2017-11-30T01:33:39.066Z,69.67
2017-11-30T01:36:12.541Z,69.21
2017-11-30T01:38:45.796Z,68.66
2017-11-30T01:41:18.765Z,68.28
2017-11-30T01:43:52.501Z,67.85
2017-11-30T01:46:26.698Z,69.26
2017-11-30T01:49:00.104Z,69.69
2017-11-30T01:51:32.803Z,70.10
2017-11-30T01:54:07.397Z,70.03
2017-11-30T01:56:39.792Z,69.82
2017-11-30T01:59:11.882Z,68.82
2017-11-30T02:01:45.704Z,68.42
2017-11-30T02:04:16.945Z,68.11
2017-11-30T02:06:49.437Z,67.96
2017-11-30T02:09:23.227Z,68.50
2017-11-30T02:11:56.212Z,68.73
2017-11-30T02:14:30.217Z,68.53
2017-11-30T02:20:42.715Z,69.22
2017-11-30T02:23:16.418Z,69.61
2017-11-30T02:25:52.619Z,68.66
2017-11-30T02:28:34.346Z,68.48
2017-11-30T02:31:27.122Z,68.51
2017-11-30T02:34:11.328Z,68.34
2017-11-30T02:36:50.726Z,67.98
2017-11-30T02:39:25.438Z,68.08
2017-11-30T02:45:16.748Z,68.14
2017-11-30T02:47:53.523Z,69.21
2017-11-30T02:50:39.338Z,68.73
2017-11-30T02:53:12.836Z,69.40
2017-11-30T02:55:44.957Z,69.23
2017-11-30T02:58:17.362Z,68.73
2017-11-30T03:00:53.245Z,69.47
2017-11-30T03:03:27.186Z,70.39
2017-11-30T03:06:04.457Z,71.33
2017-11-30T03:09:11.736Z,73.14
2017-11-30T03:11:46.562Z,74.23
2017-11-30T03:14:18.983Z,74.64
2017-11-30T03:16:53.266Z,73.65
2017-11-30T03:19:28.084Z,72.58
2017-11-30T03:22:07.182Z,72.89
2017-11-30T03:24:38.986Z,72.52
2017-11-30T03:27:12.282Z,72.36
2017-11-30T03:29:44.406Z,72.50
2017-11-30T03:32:16.401Z,73.67
2017-11-30T03:34:50.711Z,74.60
2017-11-30T03:37:22.509Z,73.38
2017-11-30T03:39:54.403Z,72.98
2017-11-30T03:42:28.919Z,72.49
2017-11-30T03:45:03.217Z,72.50
2017-11-30T03:47:36.470Z,73.91
2017-11-30T03:50:09.613Z,73.74
2017-11-30T03:52:42.520Z,73.59
2017-11-30T03:55:14.823Z,72.48
2017-11-30T03:57:47.826Z,71.79
2017-11-30T04:00:21.225Z,71.08
2017-11-30T04:02:53.507Z,73.27
2017-11-30T04:05:26.524Z,73.04
2017-11-30T04:08:02.364Z,72.91
2017-11-30T04:10:35.757Z,74.37
2017-11-30T04:13:08.161Z,75.44
2017-11-30T04:18:18.474Z,76.09
2017-11-30T04:20:50.262Z,76.33
2017-11-30T04:23:23.081Z,75.27
2017-11-30T04:25:56.394Z,75.30
2017-11-30T04:28:29.149Z,74.16
2017-11-30T04:31:01.456Z,74.45
2017-11-30T04:33:34.418Z,75.54
2017-11-30T04:36:07.040Z,74.59
2017-11-30T04:38:39.041Z,73.54
2017-11-30T04:41:11.776Z,74.09
2017-11-30T04:43:43.645Z,74.33
2017-11-30T04:46:16.632Z,73.47
2017-11-30T04:48:47.915Z,73.10
2017-11-30T04:51:19.744Z,73.16
2017-11-30T04:53:52.344Z,73.61
2017-11-30T04:56:27.042Z,73.79
2017-11-30T04:58:59.329Z,72.25
2017-11-30T05:01:33.431Z,71.83
2017-11-30T05:04:05.324Z,72.17
2017-11-30T05:06:37.967Z,73.52
2017-11-30T05:09:11.230Z,75.00
2017-11-30T05:11:44.345Z,74.91
2017-11-30T05:14:19.177Z,73.88
2017-11-30T05:16:54.445Z,74.48
2017-11-30T05:19:32.522Z,76.36
2017-11-30T05:22:12.528Z,75.28
2017-11-30T05:24:42.923Z,74.58
2017-11-30T05:27:15.239Z,73.45
2017-11-30T05:29:48.643Z,72.69
2017-11-30T05:32:20.270Z,72.32
2017-11-30T05:34:55.515Z,72.28
2017-11-30T05:37:27.907Z,73.15
2017-11-30T05:40:00.992Z,72.53
2017-11-30T05:42:39.914Z,71.91
2017-11-30T05:45:21.705Z,72.19
2017-11-30T05:47:55.900Z,71.49
2017-11-30T05:50:29.603Z,70.82
2017-11-30T05:53:04.988Z,70.60
2017-11-30T05:55:37.502Z,70.17
2017-11-30T05:58:15.203Z,69.65
2017-11-30T06:00:49.385Z,69.58
2017-11-30T06:03:23.910Z,69.59
2017-11-30T06:05:59.911Z,70.38
2017-11-30T06:08:30.631Z,71.33
2017-11-30T06:11:01.462Z,70.77
2017-11-30T06:13:35.514Z,70.77
2017-11-30T06:16:19.668Z,70.46
2017-11-30T06:18:51.814Z,70.34
2017-11-30T06:21:24.710Z,70.46
2017-11-30T06:23:57.099Z,70.87
2017-11-30T06:26:29.005Z,70.62
2017-11-30T06:29:00.795Z,70.26
2017-11-30T06:31:33.307Z,69.79
2017-11-30T06:34:05.908Z,69.96
2017-11-30T06:36:38.514Z,71.28
2017-11-30T06:39:11.040Z,71.73
2017-11-30T06:41:43.196Z,70.79
2017-11-30T06:44:21.414Z,70.80
2017-11-30T06:46:56.009Z,70.59
2017-11-30T06:49:28.501Z,70.36
2017-11-30T06:52:00.702Z,70.11
2017-11-30T06:54:34.802Z,69.79
2017-11-30T06:57:08.213Z,69.69
2017-11-30T06:59:43.311Z,69.43
2017-11-30T07:02:16.846Z,69.67
2017-11-30T07:04:50.021Z,70.27
2017-11-30T07:07:21.517Z,69.83
2017-11-30T07:09:53.918Z,69.60
2017-11-30T07:12:25.661Z,68.90
2017-11-30T07:14:58.958Z,68.70
2017-11-30T07:22:32.550Z,68.39
2017-11-30T07:25:09.484Z,69.62
2017-11-30T07:27:42.889Z,70.04
2017-11-30T07:30:18.252Z,69.14
2017-11-30T07:32:53.859Z,68.51
2017-11-30T07:35:33.259Z,67.94
2017-11-30T07:38:07.155Z,68.20
2017-11-30T07:40:40.497Z,67.74
2017-11-30T07:43:14.076Z,67.32
2017-11-30T07:45:46.970Z,67.83
2017-11-30T07:48:19.468Z,67.99
2017-11-30T07:50:51.545Z,68.10
2017-11-30T07:53:24.063Z,67.79
2017-11-30T07:55:55.891Z,67.82
2017-11-30T07:58:28.153Z,68.31
2017-11-30T08:01:03.647Z,68.23
2017-11-30T08:03:36.642Z,68.51
2017-11-30T08:06:13.132Z,68.67
2017-11-30T08:08:45.339Z,68.41
2017-11-30T08:11:16.951Z,68.35
2017-11-30T08:13:49.049Z,68.38
2017-11-30T08:16:24.449Z,68.01
2017-11-30T08:18:56.246Z,67.86
2017-11-30T08:21:29.169Z,67.73
2017-11-30T08:24:02.670Z,67.85
2017-11-30T08:26:36.574Z,67.83
2017-11-30T08:29:14.000Z,67.70
2017-11-30T08:31:49.623Z,67.16
2017-11-30T08:34:24.012Z,66.83
2017-11-30T08:37:01.271Z,66.97
2017-11-30T08:39:37.309Z,66.71
2017-11-30T08:42:13.999Z,66.48
2017-11-30T08:44:49.569Z,66.93
2017-11-30T08:47:25.128Z,66.64
2017-11-30T08:49:58.113Z,67.29
2017-11-30T08:52:37.545Z,67.72
2017-11-30T08:55:11.896Z,67.44
2017-11-30T08:58:06.404Z,67.32
2017-11-30T09:00:48.172Z,67.55
2017-11-30T09:03:37.443Z,67.33
2017-11-30T09:06:11.865Z,67.42
2017-11-30T09:08:44.739Z,67.38
2017-11-30T09:11:16.671Z,67.74
2017-11-30T09:14:05.689Z,67.96
2017-11-30T09:16:41.870Z,67.38
2017-11-30T09:19:21.178Z,67.32
2017-11-30T09:21:53.272Z,67.21
2017-11-30T09:24:24.999Z,67.70
2017-11-30T09:26:57.179Z,67.93
2017-11-30T09:29:31.183Z,67.52
2017-11-30T09:32:08.460Z,67.68
2017-11-30T09:34:41.592Z,67.89
2017-11-30T09:37:19.162Z,68.10
2017-11-30T09:39:49.979Z,68.56
2017-11-30T09:42:22.781Z,69.14
2017-11-30T09:45:00.562Z,69.83
2017-11-30T09:47:36.705Z,69.78
2017-11-30T09:50:10.782Z,69.52
2017-11-30T09:52:45.910Z,69.30
2017-11-30T09:55:17.868Z,69.25
2017-11-30T09:57:51.758Z,69.90
2017-11-30T10:00:28.626Z,70.25
2017-11-30T10:02:59.147Z,70.05
2017-11-30T10:05:31.993Z,70.57
2017-11-30T10:08:06.019Z,70.32
2017-11-30T10:10:38.547Z,70.42
2017-11-30T10:13:10.430Z,70.40
2017-11-30T10:15:42.625Z,70.13
2017-11-30T10:18:15.656Z,70.23
2017-11-30T10:20:56.889Z,70.05
2017-11-30T10:23:45.611Z,69.97
2017-11-30T10:26:16.943Z,70.34
2017-11-30T10:28:49.148Z,69.57
2017-11-30T10:31:22.835Z,69.23
2017-11-30T10:34:04.430Z,69.07
2017-11-30T10:36:44.653Z,68.94
2017-11-30T10:39:23.140Z,69.05
2017-11-30T10:41:55.445Z,68.55
2017-11-30T10:44:30.117Z,68.47
2017-11-30T10:47:04.601Z,68.92
2017-11-30T10:52:20.870Z,68.96
2017-11-30T10:54:58.522Z,69.07
2017-11-30T10:57:31.426Z,68.66
2017-11-30T11:00:17.183Z,69.63
2017-11-30T11:02:50.708Z,69.60
2017-11-30T11:05:23.906Z,69.16
2017-11-30T11:07:54.736Z,69.16
2017-11-30T11:10:26.925Z,69.45
2017-11-30T11:13:07.319Z,69.90
2017-11-30T11:15:43.019Z,69.87
2017-11-30T11:18:15.191Z,69.75
2017-11-30T11:20:49.105Z,69.80
2017-11-30T11:23:30.389Z,69.28
2017-11-30T11:28:29.355Z,69.15
2017-11-30T11:31:02.801Z,69.32
2017-11-30T11:33:35.405Z,69.17
2017-11-30T11:36:07.695Z,69.15
2017-11-30T11:41:30.532Z,69.25
2017-11-30T11:44:08.934Z,68.96
2017-11-30T11:46:41.885Z,69.27
2017-11-30T11:49:14.348Z,68.82
2017-11-30T11:51:48.683Z,68.64
2017-11-30T11:54:44.952Z,68.63
2017-11-30T11:57:21.573Z,68.78
2017-11-30T11:59:55.747Z,68.58
2017-11-30T12:02:40.591Z,68.34
2017-11-30T12:05:16.617Z,68.37
2017-11-30T12:07:54.040Z,68.47
2017-11-30T12:10:44.646Z,67.88
2017-11-30T12:13:20.148Z,67.62
2017-11-30T12:15:52.476Z,67.42
2017-11-30T12:18:33.525Z,67.12
2017-11-30T12:21:21.968Z,66.98
2017-11-30T12:23:58.367Z,66.56
2017-11-30T12:26:40.538Z,66.69
2017-11-30T12:29:25.252Z,67.07
2017-11-30T12:32:07.668Z,66.99
2017-11-30T12:34:47.902Z,66.80
2017-11-30T12:37:24.445Z,66.91
2017-11-30T12:40:15.857Z,66.77
2017-11-30T12:42:48.153Z,66.53
2017-11-30T12:45:25.052Z,66.12
2017-11-30T12:50:48.180Z,66.30
2017-11-30T12:53:25.627Z,65.59
2017-11-30T12:55:58.461Z,65.64
2017-11-30T12:58:33.756Z,66.19
2017-11-30T13:01:10.490Z,66.21
2017-11-30T13:03:43.805Z,66.37
2017-11-30T13:06:15.806Z,66.46
2017-11-30T13:08:47.468Z,66.49
2017-11-30T13:11:19.872Z,66.17
2017-11-30T13:13:53.364Z,65.87
2017-11-30T13:16:39.577Z,65.41
2017-11-30T13:19:14.162Z,65.75
2017-11-30T13:21:47.467Z,65.86
2017-11-30T13:24:22.488Z,65.90
2017-11-30T13:26:56.675Z,66.17
2017-11-30T13:32:08.347Z,66.30
2017-11-30T13:34:42.240Z,66.89
2017-11-30T13:37:13.301Z,67.99
2017-11-30T13:40:07.384Z,68.08
2017-11-30T13:42:39.849Z,67.90
2017-11-30T13:48:24.274Z,66.82
2017-11-30T13:51:00.929Z,67.13
2017-11-30T13:53:36.892Z,67.51
2017-11-30T13:56:13.416Z,67.08
2017-11-30T13:58:47.827Z,66.76
2017-11-30T14:01:27.212Z,66.77
2017-11-30T14:04:08.307Z,66.90
2017-11-30T14:06:47.128Z,66.80
2017-11-30T14:09:25.358Z,66.85
2017-11-30T14:12:01.420Z,66.66
2017-11-30T14:14:34.042Z,67.41
2017-11-30T14:17:05.959Z,67.58
2017-11-30T14:19:37.274Z,67.49
2017-11-30T14:22:11.705Z,67.35
2017-11-30T14:24:45.595Z,66.96
2017-11-30T14:27:18.625Z,66.59
2017-11-30T14:29:58.949Z,66.27
2017-11-30T14:32:33.596Z,65.88
2017-11-30T14:35:09.249Z,65.90
2017-11-30T14:37:43.924Z,65.33
2017-11-30T14:40:20.736Z,65.54
2017-11-30T14:42:59.154Z,65.55
2017-11-30T14:45:50.442Z,65.36
2017-11-30T14:48:24.648Z,65.29
2017-11-30T14:50:57.859Z,64.93
2017-11-30T14:56:21.121Z,64.98
2017-11-30T14:58:58.136Z,64.62
2017-11-30T15:01:36.519Z,64.46
2017-11-30T15:04:16.523Z,64.86
2017-11-30T15:06:51.220Z,64.85
2017-11-30T15:09:32.826Z,65.14
2017-11-30T15:12:21.784Z,64.99
2017-11-30T15:19:09.227Z,66.54
2017-11-30T15:22:01.421Z,66.54
2017-11-30T15:24:36.831Z,66.33
2017-11-30T15:27:13.728Z,66.50
2017-11-30T15:29:48.923Z,66.01
2017-11-30T15:32:24.824Z,66.27
2017-11-30T15:35:13.658Z,65.86
2017-11-30T15:37:48.924Z,66.46
2017-11-30T15:40:22.025Z,66.95
2017-11-30T15:42:56.062Z,66.77
2017-11-30T15:45:28.514Z,66.40
2017-11-30T15:48:06.424Z,66.27
2017-11-30T15:50:38.723Z,66.59
2017-11-30T15:53:17.608Z,66.58
2017-11-30T15:55:53.158Z,67.00
2017-11-30T15:58:24.696Z,66.87
2017-11-30T16:00:55.852Z,67.54
2017-11-30T16:03:31.031Z,67.18
2017-11-30T16:06:09.812Z,67.48
2017-11-30T16:08:43.016Z,67.38
2017-11-30T16:11:26.720Z,67.04
2017-11-30T16:13:59.870Z,67.22
2017-11-30T16:16:41.527Z,67.13
2017-11-30T16:19:17.334Z,67.39
2017-11-30T16:21:56.061Z,67.64
2017-11-30T16:24:30.680Z,67.53
2017-11-30T16:27:02.241Z,66.85
2017-11-30T16:29:35.545Z,66.62
2017-11-30T16:32:17.141Z,66.86
2017-11-30T16:34:51.356Z,67.09
2017-11-30T16:37:25.924Z,66.97
2017-11-30T16:39:57.208Z,66.45
2017-11-30T16:47:50.559Z,65.91
2017-11-30T16:50:25.944Z,65.44
2017-11-30T16:53:00.906Z,65.66
2017-11-30T16:55:31.872Z,65.79
2017-11-30T17:00:44.148Z,65.62
2017-11-30T17:03:17.151Z,65.35
2017-11-30T17:05:53.068Z,65.92
2017-11-30T17:08:24.386Z,65.80
2017-11-30T17:10:58.168Z,65.14
2017-11-30T17:13:30.764Z,65.21
2017-11-30T17:16:10.158Z,65.75
2017-11-30T17:18:41.845Z,65.37
2017-11-30T17:21:13.374Z,65.19
2017-11-30T17:23:49.354Z,65.81
2017-11-30T17:26:20.221Z,66.35
2017-11-30T17:28:51.991Z,67.01
2017-11-30T17:31:28.270Z,67.88
2017-11-30T17:34:01.625Z,68.12
2017-11-30T17:36:33.689Z,67.58
2017-11-30T17:39:07.388Z,67.72
2017-11-30T17:41:41.702Z,67.89
2017-11-30T17:44:17.001Z,67.92
2017-11-30T17:46:48.025Z,68.06
2017-11-30T17:49:22.118Z,68.48
2017-11-30T17:51:59.189Z,68.22
2017-11-30T17:54:30.809Z,68.46
2017-11-30T17:57:04.798Z,68.46
2017-11-30T17:59:38.671Z,68.98
2017-11-30T18:02:12.870Z,68.90
2017-11-30T18:04:46.368Z,68.94
2017-11-30T18:07:18.563Z,69.22
2017-11-30T18:09:54.849Z,69.10
2017-11-30T18:12:29.035Z,69.62
2017-11-30T18:15:07.045Z,69.92
2017-11-30T18:17:38.565Z,69.41
2017-11-30T18:20:18.532Z,69.76
2017-11-30T18:24:02.509Z,70.05
2017-11-30T18:26:35.063Z,69.70
2017-11-30T18:29:05.537Z,69.79
2017-11-30T18:31:43.206Z,69.71
2017-11-30T18:37:11.103Z,69.44
2017-11-30T18:39:47.036Z,69.53
2017-11-30T18:42:19.955Z,69.55
2017-11-30T18:44:56.365Z,69.44
2017-11-30T18:47:30.578Z,70.02
2017-11-30T18:50:02.869Z,69.86
2017-11-30T18:52:33.803Z,70.00
2017-11-30T18:55:06.096Z,70.58
2017-11-30T18:57:44.891Z,70.59
2017-11-30T19:00:18.565Z,70.65
2017-11-30T19:02:50.329Z,71.01
2017-11-30T19:05:20.981Z,70.71
2017-11-30T19:07:52.127Z,71.24
2017-11-30T19:10:22.585Z,70.79
2017-11-30T19:12:53.182Z,70.90
2017-11-30T19:15:24.643Z,70.87
2017-11-30T19:17:55.027Z,70.81
2017-11-30T19:20:29.323Z,71.42
2017-11-30T19:23:03.392Z,71.09
2017-11-30T19:25:38.500Z,71.65
2017-11-30T19:28:10.693Z,71.92
2017-11-30T19:30:43.706Z,71.12
2017-11-30T19:33:15.504Z,71.22
2017-11-30T19:35:48.788Z,71.68
2017-11-30T19:38:19.190Z,71.05
2017-11-30T19:40:50.127Z,71.24
2017-11-30T19:43:22.806Z,71.60
2017-11-30T19:46:08.212Z,71.74
2017-11-30T19:48:45.212Z,71.72
2017-11-30T19:51:16.500Z,71.25
2017-11-30T19:53:51.483Z,70.79
2017-11-30T19:56:29.404Z,70.46
2017-11-30T19:59:00.423Z,70.31
2017-11-30T20:01:32.596Z,69.98
2017-11-30T20:04:05.405Z,69.70
2017-11-30T20:06:39.190Z,69.40
2017-11-30T20:09:11.695Z,69.22
2017-11-30T20:11:47.188Z,69.55
2017-11-30T20:16:59.798Z,70.06
2017-11-30T20:19:35.009Z,70.25
2017-11-30T20:22:10.800Z,69.89
2017-11-30T20:24:44.606Z,70.54
2017-11-30T20:27:17.306Z,69.68
2017-11-30T20:29:49.789Z,69.71
2017-11-30T20:32:32.325Z,69.08
2017-11-30T20:35:06.918Z,68.70
2017-11-30T20:37:40.297Z,68.71
2017-11-30T20:40:25.538Z,69.54
2017-11-30T20:42:57.349Z,70.26
2017-11-30T20:45:29.625Z,69.92
2017-11-30T20:48:05.409Z,70.30
2017-11-30T20:50:36.265Z,71.11
2017-11-30T20:53:08.648Z,71.52
2017-11-30T20:55:41.414Z,71.92
2017-11-30T20:58:13.288Z,71.77
2017-11-30T21:00:46.905Z,71.87
2017-11-30T21:03:29.029Z,71.47
2017-11-30T21:06:03.014Z,71.37
2017-11-30T21:08:35.932Z,71.63
2017-11-30T21:11:10.083Z,71.75
2017-11-30T21:13:44.905Z,70.84
2017-11-30T21:16:18.437Z,70.46
2017-11-30T21:18:51.321Z,70.34
2017-11-30T21:21:24.127Z,69.88
2017-11-30T21:23:56.226Z,69.28
2017-11-30T21:26:29.029Z,69.41
2017-11-30T21:29:02.144Z,69.92
2017-11-30T21:31:35.541Z,70.51
2017-11-30T21:34:10.156Z,70.37
2017-11-30T21:36:42.163Z,69.97
2017-11-30T21:39:13.768Z,69.35
2017-11-30T21:41:53.388Z,69.28
2017-11-30T21:44:31.160Z,69.34
2017-11-30T21:47:05.873Z,69.29
2017-11-30T21:49:39.866Z,69.01
2017-11-30T21:52:14.577Z,69.43
2017-11-30T21:54:48.696Z,69.24
2017-11-30T21:57:23.833Z,69.64
2017-11-30T21:59:57.614Z,69.76
2017-11-30T22:02:28.974Z,69.30
2017-11-30T22:05:03.978Z,68.77
2017-11-30T22:07:40.254Z,68.88
2017-11-30T22:10:12.559Z,69.35
2017-11-30T22:12:44.206Z,69.63
2017-11-30T22:15:19.233Z,69.25
2017-11-30T22:17:54.223Z,68.96
2017-11-30T22:20:27.365Z,69.28
2017-11-30T22:23:05.692Z,68.87
2017-11-30T22:25:40.692Z,69.43
2017-11-30T22:28:17.362Z,70.48
2017-11-30T22:30:53.465Z,71.91
2017-11-30T22:33:27.085Z,71.11
2017-11-30T22:36:00.284Z,70.86
2017-11-30T22:38:30.891Z,70.17
2017-11-30T22:41:10.479Z,70.09
2017-11-30T22:43:43.054Z,69.56
2017-11-30T22:46:15.081Z,69.00
2017-11-30T22:48:55.077Z,68.87
2017-11-30T22:51:31.760Z,68.61
2017-11-30T22:54:05.894Z,68.39
2017-11-30T22:56:39.590Z,68.27
2017-11-30T22:59:20.353Z,68.10
2017-11-30T23:01:58.597Z,67.81
2017-11-30T23:04:31.982Z,67.87
2017-11-30T23:07:04.869Z,67.85
2017-11-30T23:09:36.978Z,68.04
2017-11-30T23:12:09.340Z,67.91
2017-11-30T23:14:42.509Z,68.29
2017-11-30T23:17:15.428Z,68.68
2017-11-30T23:20:01.212Z,69.28
2017-11-30T23:22:33.537Z,69.93
2017-11-30T23:25:07.044Z,71.84
2017-11-30T23:27:42.580Z,72.72
2017-11-30T23:30:19.371Z,72.91
2017-11-30T23:35:38.189Z,71.36
2017-11-30T23:38:09.552Z,71.74
2017-11-30T23:40:47.136Z,72.37
2017-11-30T23:43:22.565Z,71.12
2017-11-30T23:45:54.031Z,70.13
2017-11-30T23:48:24.649Z,69.82
2017-11-30T23:50:58.447Z,69.58
2017-11-30T23:53:31.862Z,69.26
2017-11-30T23:56:03.508Z,70.27
2017-11-30T23:58:39.023Z,70.61
